Franklin, West Virginia
Current Conditions -  °F | °C
As of 9:15 PM on Wednesday 17 Dec 2014 (Local Time) from KW99 Reporting Station
Clear Clear  
Wind Chill: 26°   Ceiling: Unl
Heat Index: 37°   Visibility: 10mi
Dew Point: 21°   Wind: 21mph
Humidity: 54%   Direction: 280°W
Pressure: 30.08"   Gusts: NA
Location:  38.64°N, 79.33°W
Report Text: KW99 180215Z AUTO 28018KT 10SM CLR 03/M06 A3008 RMK AO2 T00251060
Loading
Personal Weather Stations






























Interactive Weather Map New forecast layout! Learn more

10-Day Weather Forecast

Advertisements
Track Severe Weather on mobile